sensor_id;sensor_type;location;lat;lon;timestamp;temperature;humidity
2611;DHT22;5612;51.134;17.058;2023-09-12T00:00:22;20.00;4.20
2611;DHT22;5612;51.134;17.058;2023-09-12T00:02:51;20.00;1.90
2611;DHT22;5612;51.134;17.058;2023-09-12T00:05:20;20.00;1.00
2611;DHT22;5612;51.134;17.058;2023-09-12T00:07:52;19.90;99.90
2611;DHT22;5612;51.134;17.058;2023-09-12T00:10:21;19.90;99.90
2611;DHT22;5612;51.134;17.058;2023-09-12T00:12:49;19.80;99.90
2611;DHT22;5612;51.134;17.058;2023-09-12T00:15:18;19.80;99.90
2611;DHT22;5612;51.134;17.058;2023-09-12T00:17:49;19.80;99.90
2611;DHT22;5612;51.134;17.058;2023-09-12T00:20:18;19.80;99.90
2611;DHT22;5612;51.134;17.058;2023-09-12T00:22:47;19.70;99.90
2611;DHT22;5612;51.134;17.058;2023-09-12T00:25:15;19.70;99.90
2611;DHT22;5612;51.134;17.058;2023-09-12T00:27:44;19.70;99.90
2611;DHT22;5612;51.134;17.058;2023-09-12T00:30:14;19.70;1.00
2611;DHT22;5612;51.134;17.058;2023-09-12T00:32:45;19.60;1.00
2611;DHT22;5612;51.134;17.058;2023-09-12T00:35:16;19.60;13.90
2611;DHT22;5612;51.134;17.058;2023-09-12T00:37:44;19.60;99.90
2611;DHT22;5612;51.134;17.058;2023-09-12T00:40:13;19.60;99.90
2611;DHT22;5612;51.134;17.058;2023-09-12T00:42:42;19.60;72.20
2611;DHT22;5612;51.134;17.058;2023-09-12T00:45:11;19.60;99.90
2611;DHT22;5612;51.134;17.058;2023-09-12T00:47:40;19.50;99.90
2611;DHT22;5612;51.134;17.058;2023-09-12T00:50:09;19.40;99.90
2611;DHT22;5612;51.134;17.058;2023-09-12T00:52:41;19.40;99.90
2611;DHT22;5612;51.134;17.058;2023-09-12T00:55:10;19.30;99.90
2611;DHT22;5612;51.134;17.058;2023-09-12T00:57:40;19.40;1.00
2611;DHT22;5612;51.134;17.058;2023-09-12T01:00:12;19.30;1.00
2611;DHT22;5612;51.134;17.058;2023-09-12T01:02:42;19.30;1.00
2611;DHT22;5612;51.134;17.058;2023-09-12T01:05:13;19.30;1.00
2611;DHT22;5612;51.134;17.058;2023-09-12T01:07:43;19.20;99.90
2611;DHT22;5612;51.134;17.058;2023-09-12T01:10:13;19.20;99.90
2611;DHT22;5612;51.134;17.058;2023-09-12T01:12:42;19.20;99.90
2611;DHT22;5612;51.134;17.058;2023-09-12T01:15:11;19.20;99.90
2611;DHT22;5612;51.134;17.058;2023-09-12T01:17:42;19.10;99.90
2611;DHT22;5612;51.134;17.058;2023-09-12T01:20:15;19.10;1.00
2611;DHT22;5612;51.134;17.058;2023-09-12T01:22:56;19.10;1.00
2611;DHT22;5612;51.134;17.058;2023-09-12T01:26:03;19.00;1.00
2611;DHT22;5612;51.134;17.058;2023-09-12T01:28:40;19.00;99.90
2611;DHT22;5612;51.134;17.058;2023-09-12T01:31:12;19.00;99.90
2611;DHT22;5612;51.134;17.058;2023-09-12T01:33:41;19.00;99.90
2611;DHT22;5612;51.134;17.058;2023-09-12T01:36:10;19.00;99.90
2611;DHT22;5612;51.134;17.058;2023-09-12T01:38:39;19.00;60.80
2611;DHT22;5612;51.134;17.058;2023-09-12T01:41:08;19.00;99.90
2611;DHT22;5612;51.134;17.058;2023-09-12T01:43:39;19.00;91.40
2611;DHT22;5612;51.134;17.058;2023-09-12T01:46:09;19.00;27.10
2611;DHT22;5612;51.134;17.058;2023-09-12T01:48:40;18.90;40.60
2611;DHT22;5612;51.134;17.058;2023-09-12T01:51:10;19.00;99.90
2611;DHT22;5612;51.134;17.058;2023-09-12T01:53:39;18.90;62.20
2611;DHT22;5612;51.134;17.058;2023-09-12T01:56:08;18.80;39.00
2611;DHT22;5612;51.134;17.058;2023-09-12T01:58:38;18.80;99.90
2611;DHT22;5612;51.134;17.058;2023-09-12T02:01:08;18.80;99.90
2611;DHT22;5612;51.134;17.058;2023-09-12T02:03:38;18.80;99.90
2611;DHT22;5612;51.134;17.058;2023-09-12T02:06:07;18.70;99.90
2611;DHT22;5612;51.134;17.058;2023-09-12T02:08:35;18.70;99.90
2611;DHT22;5612;51.134;17.058;2023-09-12T02:11:04;18.70;99.90
2611;DHT22;5612;51.134;17.058;2023-09-12T02:13:33;18.70;99.90
2611;DHT22;5612;51.134;17.058;2023-09-12T02:16:03;18.60;99.90
2611;DHT22;5612;51.134;17.058;2023-09-12T02:18:32;18.60;99.90
2611;DHT22;5612;51.134;17.058;2023-09-12T02:21:01;18.50;1.00
2611;DHT22;5612;51.134;17.058;2023-09-12T02:23:30;18.50;1.00
2611;DHT22;5612;51.134;17.058;2023-09-12T02:25:59;18.50;1.00
2611;DHT22;5612;51.134;17.058;2023-09-12T02:28:27;18.50;1.00
2611;DHT22;5612;51.134;17.058;2023-09-12T02:30:56;18.50;1.00
2611;DHT22;5612;51.134;17.058;2023-09-12T02:33:27;18.40;1.00
2611;DHT22;5612;51.134;17.058;2023-09-12T02:35:56;18.40;1.00
2611;DHT22;5612;51.134;17.058;2023-09-12T02:38:25;18.40;1.00
2611;DHT22;5612;51.134;17.058;2023-09-12T02:40:53;18.40;1.00
2611;DHT22;5612;51.134;17.058;2023-09-12T02:43:23;18.40;1.00
2611;DHT22;5612;51.134;17.058;2023-09-12T02:45:52;18.40;1.00
2611;DHT22;5612;51.134;17.058;2023-09-12T02:48:20;18.30;1.00
2611;DHT22;5612;51.134;17.058;2023-09-12T02:50:51;18.30;1.00
2611;DHT22;5612;51.134;17.058;2023-09-12T02:53:20;18.30;1.00
2611;DHT22;5612;51.134;17.058;2023-09-12T02:55:49;18.30;1.00
2611;DHT22;5612;51.134;17.058;2023-09-12T02:58:19;18.30;1.00
2611;DHT22;5612;51.134;17.058;2023-09-12T03:00:48;18.30;99.90
2611;DHT22;5612;51.134;17.058;2023-09-12T03:03:21;18.30;1.00
2611;DHT22;5612;51.134;17.058;2023-09-12T03:05:58;18.30;99.90
2611;DHT22;5612;51.134;17.058;2023-09-12T03:08:27;18.30;1.00
2611;DHT22;5612;51.134;17.058;2023-09-12T03:10:57;18.20;1.00
2611;DHT22;5612;51.134;17.058;2023-09-12T03:13:26;18.20;1.00
2611;DHT22;5612;51.134;17.058;2023-09-12T03:15:54;18.20;1.00
2611;DHT22;5612;51.134;17.058;2023-09-12T03:18:23;18.10;1.00
2611;DHT22;5612;51.134;17.058;2023-09-12T03:20:52;18.10;1.00
2611;DHT22;5612;51.134;17.058;2023-09-12T03:23:22;18.10;1.00
2611;DHT22;5612;51.134;17.058;2023-09-12T03:25:51;18.00;1.00
2611;DHT22;5612;51.134;17.058;2023-09-12T03:28:20;17.90;1.00
2611;DHT22;5612;51.134;17.058;2023-09-12T03:30:49;17.90;1.00
2611;DHT22;5612;51.134;17.058;2023-09-12T03:33:18;18.00;1.00
2611;DHT22;5612;51.134;17.058;2023-09-12T03:35:47;17.90;1.00
2611;DHT22;5612;51.134;17.058;2023-09-12T03:38:15;17.90;1.00
2611;DHT22;5612;51.134;17.058;2023-09-12T03:40:46;17.80;1.00
2611;DHT22;5612;51.134;17.058;2023-09-12T03:43:15;17.80;1.00
2611;DHT22;5612;51.134;17.058;2023-09-12T03:45:43;17.80;1.00
2611;DHT22;5612;51.134;17.058;2023-09-12T03:48:12;17.80;1.00
2611;DHT22;5612;51.134;17.058;2023-09-12T03:50:41;17.70;1.00
2611;DHT22;5612;51.134;17.058;2023-09-12T03:53:10;17.70;1.00
2611;DHT22;5612;51.134;17.058;2023-09-12T03:55:39;17.70;1.00
2611;DHT22;5612;51.134;17.058;2023-09-12T03:58:09;17.60;1.00
2611;DHT22;5612;51.134;17.058;2023-09-12T04:00:38;17.60;1.00
2611;DHT22;5612;51.134;17.058;2023-09-12T04:03:07;17.70;1.00
2611;DHT22;5612;51.134;17.058;2023-09-12T04:05:36;17.70;1.00
2611;DHT22;5612;51.134;17.058;2023-09-12T04:08:05;17.70;1.00
2611;DHT22;5612;51.134;17.058;2023-09-12T04:10:33;17.60;1.00
2611;DHT22;5612;51.134;17.058;2023-09-12T04:13:02;17.60;1.00
2611;DHT22;5612;51.134;17.058;2023-09-12T04:15:33;17.50;1.00
2611;DHT22;5612;51.134;17.058;2023-09-12T04:18:02;17.60;1.00
2611;DHT22;5612;51.134;17.058;2023-09-12T04:20:31;17.50;1.00
2611;DHT22;5612;51.134;17.058;2023-09-12T04:23:01;17.50;1.00
2611;DHT22;5612;51.134;17.058;2023-09-12T04:25:31;17.50;1.00
2611;DHT22;5612;51.134;17.058;2023-09-12T04:28:00;17.50;1.00
2611;DHT22;5612;51.134;17.058;2023-09-12T04:30:29;17.60;1.00
2611;DHT22;5612;51.134;17.058;2023-09-12T04:32:59;17.50;1.00
2611;DHT22;5612;51.134;17.058;2023-09-12T04:35:28;17.50;1.00
2611;DHT22;5612;51.134;17.058;2023-09-12T04:37:57;17.50;1.00
2611;DHT22;5612;51.134;17.058;2023-09-12T04:40:26;17.50;1.00
2611;DHT22;5612;51.134;17.058;2023-09-12T04:42:55;17.50;1.00
2611;DHT22;5612;51.134;17.058;2023-09-12T04:45:24;17.50;1.00
2611;DHT22;5612;51.134;17.058;2023-09-12T04:47:52;17.50;1.00
2611;DHT22;5612;51.134;17.058;2023-09-12T04:50:24;17.50;1.00
2611;DHT22;5612;51.134;17.058;2023-09-12T04:52:53;17.60;1.00
2611;DHT22;5612;51.134;17.058;2023-09-12T04:55:22;17.60;1.00
2611;DHT22;5612;51.134;17.058;2023-09-12T04:57:50;17.70;1.00
2611;DHT22;5612;51.134;17.058;2023-09-12T05:00:20;17.70;1.00
2611;DHT22;5612;51.134;17.058;2023-09-12T05:02:49;17.70;1.00
2611;DHT22;5612;51.134;17.058;2023-09-12T05:05:17;17.70;1.00
2611;DHT22;5612;51.134;17.058;2023-09-12T05:07:48;17.80;1.00
2611;DHT22;5612;51.134;17.058;2023-09-12T05:10:17;17.80;1.00
2611;DHT22;5612;51.134;17.058;2023-09-12T05:12:46;17.90;1.00
2611;DHT22;5612;51.134;17.058;2023-09-12T05:15:15;17.90;1.00
2611;DHT22;5612;51.134;17.058;2023-09-12T05:17:44;17.90;1.00
2611;DHT22;5612;51.134;17.058;2023-09-12T05:20:13;18.00;1.00
2611;DHT22;5612;51.134;17.058;2023-09-12T05:22:42;18.10;1.00
2611;DHT22;5612;51.134;17.058;2023-09-12T05:25:13;18.10;1.00
2611;DHT22;5612;51.134;17.058;2023-09-12T05:27:41;18.20;1.00
2611;DHT22;5612;51.134;17.058;2023-09-12T05:30:11;18.20;1.00
2611;DHT22;5612;51.134;17.058;2023-09-12T05:32:41;18.30;1.00
2611;DHT22;5612;51.134;17.058;2023-09-12T05:35:10;18.30;1.00
2611;DHT22;5612;51.134;17.058;2023-09-12T05:37:48;18.30;1.00
2611;DHT22;5612;51.134;17.058;2023-09-12T05:40:21;18.40;1.00
2611;DHT22;5612;51.134;17.058;2023-09-12T05:42:50;18.50;1.00
2611;DHT22;5612;51.134;17.058;2023-09-12T05:45:19;18.50;99.90
2611;DHT22;5612;51.134;17.058;2023-09-12T05:47:49;18.50;1.00
2611;DHT22;5612;51.134;17.058;2023-09-12T05:50:20;18.60;1.00
2611;DHT22;5612;51.134;17.058;2023-09-12T05:52:49;18.70;1.00
2611;DHT22;5612;51.134;17.058;2023-09-12T05:55:20;18.90;99.90
2611;DHT22;5612;51.134;17.058;2023-09-12T05:57:49;19.00;99.90
2611;DHT22;5612;51.134;17.058;2023-09-12T06:00:19;19.00;99.90
2611;DHT22;5612;51.134;17.058;2023-09-12T06:02:48;19.10;99.90
2611;DHT22;5612;51.134;17.058;2023-09-12T06:05:17;19.10;1.00
2611;DHT22;5612;51.134;17.058;2023-09-12T06:07:47;19.30;1.00
2611;DHT22;5612;51.134;17.058;2023-09-12T06:10:15;19.40;1.00
2611;DHT22;5612;51.134;17.058;2023-09-12T06:12:46;19.40;99.90
2611;DHT22;5612;51.134;17.058;2023-09-12T06:15:15;19.50;99.90
2611;DHT22;5612;51.134;17.058;2023-09-12T06:17:44;19.50;99.90
2611;DHT22;5612;51.134;17.058;2023-09-12T06:20:13;19.60;99.90
2611;DHT22;5612;51.134;17.058;2023-09-12T06:22:42;19.70;99.90
2611;DHT22;5612;51.134;17.058;2023-09-12T06:25:11;19.80;99.90
2611;DHT22;5612;51.134;17.058;2023-09-12T06:27:40;19.90;97.00
2611;DHT22;5612;51.134;17.058;2023-09-12T06:30:12;20.00;1.00
2611;DHT22;5612;51.134;17.058;2023-09-12T06:32:41;20.10;1.00
2611;DHT22;5612;51.134;17.058;2023-09-12T06:35:10;20.30;1.00
2611;DHT22;5612;51.134;17.058;2023-09-12T06:37:39;20.40;1.00
2611;DHT22;5612;51.134;17.058;2023-09-12T06:40:08;20.60;99.90
2611;DHT22;5612;51.134;17.058;2023-09-12T06:42:37;20.80;99.90
2611;DHT22;5612;51.134;17.058;2023-09-12T06:45:07;21.10;1.00
2611;DHT22;5612;51.134;17.058;2023-09-12T06:47:37;21.30;1.00
2611;DHT22;5612;51.134;17.058;2023-09-12T06:50:07;21.60;1.00
2611;DHT22;5612;51.134;17.058;2023-09-12T06:52:41;21.90;1.00
2611;DHT22;5612;51.134;17.058;2023-09-12T06:55:10;22.40;99.90
2611;DHT22;5612;51.134;17.058;2023-09-12T06:57:39;23.20;97.90
2611;DHT22;5612;51.134;17.058;2023-09-12T07:00:09;24.30;1.00
2611;DHT22;5612;51.134;17.058;2023-09-12T07:02:40;25.40;1.00
2611;DHT22;5612;51.134;17.058;2023-09-12T07:05:09;26.40;1.00
2611;DHT22;5612;51.134;17.058;2023-09-12T07:07:38;27.40;1.00
2611;DHT22;5612;51.134;17.058;2023-09-12T07:10:08;28.30;1.00
2611;DHT22;5612;51.134;17.058;2023-09-12T07:12:52;29.10;1.00
2611;DHT22;5612;51.134;17.058;2023-09-12T07:15:21;29.50;1.00
2611;DHT22;5612;51.134;17.058;2023-09-12T07:17:51;30.20;1.00
2611;DHT22;5612;51.134;17.058;2023-09-12T07:20:20;30.80;1.00
2611;DHT22;5612;51.134;17.058;2023-09-12T07:22:49;31.40;1.00
2611;DHT22;5612;51.134;17.058;2023-09-12T07:25:18;31.80;1.00
2611;DHT22;5612;51.134;17.058;2023-09-12T07:27:48;32.00;1.00
2611;DHT22;5612;51.134;17.058;2023-09-12T07:30:18;32.80;1.00
2611;DHT22;5612;51.134;17.058;2023-09-12T07:32:47;33.10;1.00
2611;DHT22;5612;51.134;17.058;2023-09-12T07:35:17;33.30;1.00
2611;DHT22;5612;51.134;17.058;2023-09-12T07:37:48;33.40;1.00
2611;DHT22;5612;51.134;17.058;2023-09-12T07:40:16;33.90;1.00
2611;DHT22;5612;51.134;17.058;2023-09-12T07:42:45;34.10;1.00
2611;DHT22;5612;51.134;17.058;2023-09-12T07:45:14;34.40;1.00
2611;DHT22;5612;51.134;17.058;2023-09-12T07:47:43;34.50;1.00
2611;DHT22;5612;51.134;17.058;2023-09-12T07:50:12;34.50;1.00
2611;DHT22;5612;51.134;17.058;2023-09-12T07:52:43;34.50;1.00
2611;DHT22;5612;51.134;17.058;2023-09-12T07:55:11;34.70;1.00
2611;DHT22;5612;51.134;17.058;2023-09-12T07:57:40;35.10;1.00
2611;DHT22;5612;51.134;17.058;2023-09-12T08:00:11;35.60;1.00
2611;DHT22;5612;51.134;17.058;2023-09-12T08:02:41;36.00;1.00
2611;DHT22;5612;51.134;17.058;2023-09-12T08:05:10;36.70;1.00
2611;DHT22;5612;51.134;17.058;2023-09-12T08:07:43;37.40;1.00
2611;DHT22;5612;51.134;17.058;2023-09-12T08:10:12;38.20;1.00
2611;DHT22;5612;51.134;17.058;2023-09-12T08:12:41;39.30;1.00
2611;DHT22;5612;51.134;17.058;2023-09-12T08:15:10;40.10;1.00
2611;DHT22;5612;51.134;17.058;2023-09-12T08:17:39;39.90;1.00
2611;DHT22;5612;51.134;17.058;2023-09-12T08:20:08;39.90;1.00
2611;DHT22;5612;51.134;17.058;2023-09-12T08:22:38;40.10;1.00
2611;DHT22;5612;51.134;17.058;2023-09-12T08:25:09;39.80;1.00
2611;DHT22;5612;51.134;17.058;2023-09-12T08:27:40;40.10;1.00
2611;DHT22;5612;51.134;17.058;2023-09-12T08:30:11;40.30;1.00
2611;DHT22;5612;51.134;17.058;2023-09-12T08:32:40;40.70;1.00
2611;DHT22;5612;51.134;17.058;2023-09-12T08:35:14;41.30;1.00
2611;DHT22;5612;51.134;17.058;2023-09-12T08:37:43;42.10;1.00
2611;DHT22;5612;51.134;17.058;2023-09-12T08:40:14;42.20;1.00
2611;DHT22;5612;51.134;17.058;2023-09-12T08:42:44;41.90;1.00
2611;DHT22;5612;51.134;17.058;2023-09-12T08:45:15;41.70;1.00
2611;DHT22;5612;51.134;17.058;2023-09-12T08:47:45;41.80;1.00
2611;DHT22;5612;51.134;17.058;2023-09-12T08:50:16;42.00;1.00
2611;DHT22;5612;51.134;17.058;2023-09-12T08:52:46;41.90;1.00
2611;DHT22;5612;51.134;17.058;2023-09-12T08:55:35;42.00;1.00
2611;DHT22;5612;51.134;17.058;2023-09-12T08:58:05;42.40;1.00
2611;DHT22;5612;51.134;17.058;2023-09-12T09:00:35;42.90;1.00
2611;DHT22;5612;51.134;17.058;2023-09-12T09:03:05;43.40;1.00
2611;DHT22;5612;51.134;17.058;2023-09-12T09:05:35;43.10;1.00
2611;DHT22;5612;51.134;17.058;2023-09-12T09:08:07;43.30;1.00
2611;DHT22;5612;51.134;17.058;2023-09-12T09:10:38;43.40;1.00
2611;DHT22;5612;51.134;17.058;2023-09-12T09:13:17;44.00;1.00
2611;DHT22;5612;51.134;17.058;2023-09-12T09:15:46;44.50;1.00
2611;DHT22;5612;51.134;17.058;2023-09-12T09:18:15;44.80;1.00
2611;DHT22;5612;51.134;17.058;2023-09-12T09:20:44;45.10;1.00
2611;DHT22;5612;51.134;17.058;2023-09-12T09:23:18;45.00;1.00
2611;DHT22;5612;51.134;17.058;2023-09-12T09:25:53;44.40;1.00
2611;DHT22;5612;51.134;17.058;2023-09-12T09:28:22;44.40;1.00
2611;DHT22;5612;51.134;17.058;2023-09-12T09:30:52;44.50;1.00
2611;DHT22;5612;51.134;17.058;2023-09-12T09:33:22;44.30;1.00
2611;DHT22;5612;51.134;17.058;2023-09-12T09:36:03;44.10;1.00
2611;DHT22;5612;51.134;17.058;2023-09-12T09:38:32;44.40;1.00
2611;DHT22;5612;51.134;17.058;2023-09-12T09:41:06;45.30;1.00
2611;DHT22;5612;51.134;17.058;2023-09-12T09:43:35;45.50;1.00
2611;DHT22;5612;51.134;17.058;2023-09-12T09:46:04;44.80;1.00
2611;DHT22;5612;51.134;17.058;2023-09-12T09:48:33;44.50;1.00
2611;DHT22;5612;51.134;17.058;2023-09-12T09:51:03;44.60;1.00
2611;DHT22;5612;51.134;17.058;2023-09-12T09:53:32;44.40;1.00
2611;DHT22;5612;51.134;17.058;2023-09-12T09:56:14;44.90;1.00
2611;DHT22;5612;51.134;17.058;2023-09-12T09:58:46;45.20;1.00
2611;DHT22;5612;51.134;17.058;2023-09-12T10:01:18;45.30;1.00
2611;DHT22;5612;51.134;17.058;2023-09-12T10:03:49;45.10;1.00
2611;DHT22;5612;51.134;17.058;2023-09-12T10:06:20;45.20;1.00
2611;DHT22;5612;51.134;17.058;2023-09-12T10:08:50;46.20;1.00
2611;DHT22;5612;51.134;17.058;2023-09-12T10:11:23;46.00;1.00
2611;DHT22;5612;51.134;17.058;2023-09-12T10:13:54;46.50;1.00
2611;DHT22;5612;51.134;17.058;2023-09-12T10:16:25;46.60;1.00
2611;DHT22;5612;51.134;17.058;2023-09-12T10:19:04;46.90;1.00
2611;DHT22;5612;51.134;17.058;2023-09-12T10:21:34;47.20;1.00
2611;DHT22;5612;51.134;17.058;2023-09-12T10:24:04;47.70;1.00
2611;DHT22;5612;51.134;17.058;2023-09-12T10:26:35;47.60;1.00
2611;DHT22;5612;51.134;17.058;2023-09-12T10:29:04;47.50;1.00
2611;DHT22;5612;51.134;17.058;2023-09-12T10:31:33;47.50;1.00
2611;DHT22;5612;51.134;17.058;2023-09-12T10:34:03;47.70;1.00
2611;DHT22;5612;51.134;17.058;2023-09-12T10:36:39;48.20;1.00
2611;DHT22;5612;51.134;17.058;2023-09-12T10:39:09;47.90;1.00
2611;DHT22;5612;51.134;17.058;2023-09-12T10:41:40;48.20;1.00
2611;DHT22;5612;51.134;17.058;2023-09-12T10:44:11;47.60;1.00
2611;DHT22;5612;51.134;17.058;2023-09-12T10:46:41;47.10;1.00
2611;DHT22;5612;51.134;17.058;2023-09-12T10:49:13;48.00;1.00
2611;DHT22;5612;51.134;17.058;2023-09-12T10:51:43;47.50;1.00
2611;DHT22;5612;51.134;17.058;2023-09-12T10:54:14;47.60;1.00
2611;DHT22;5612;51.134;17.058;2023-09-12T10:56:45;48.20;1.00
2611;DHT22;5612;51.134;17.058;2023-09-12T10:59:19;49.20;1.00
2611;DHT22;5612;51.134;17.058;2023-09-12T11:01:54;49.00;1.00
2611;DHT22;5612;51.134;17.058;2023-09-12T11:04:33;49.50;1.00
2611;DHT22;5612;51.134;17.058;2023-09-12T11:07:30;49.00;1.00
2611;DHT22;5612;51.134;17.058;2023-09-12T11:10:17;48.60;1.00
2611;DHT22;5612;51.134;17.058;2023-09-12T11:12:49;48.00;1.00
2611;DHT22;5612;51.134;17.058;2023-09-12T11:15:20;47.60;1.00
2611;DHT22;5612;51.134;17.058;2023-09-12T11:17:59;47.40;1.00
2611;DHT22;5612;51.134;17.058;2023-09-12T11:20:50;47.50;1.00
2611;DHT22;5612;51.134;17.058;2023-09-12T11:23:20;47.80;1.00
2611;DHT22;5612;51.134;17.058;2023-09-12T11:26:03;47.80;1.00
2611;DHT22;5612;51.134;17.058;2023-09-12T11:28:35;48.80;1.00
2611;DHT22;5612;51.134;17.058;2023-09-12T11:31:04;49.30;1.00
2611;DHT22;5612;51.134;17.058;2023-09-12T11:33:35;50.00;1.00
2611;DHT22;5612;51.134;17.058;2023-09-12T11:36:04;49.80;1.00
2611;DHT22;5612;51.134;17.058;2023-09-12T11:38:38;49.40;1.00
2611;DHT22;5612;51.134;17.058;2023-09-12T11:41:06;48.70;1.00
2611;DHT22;5612;51.134;17.058;2023-09-12T11:43:37;48.70;1.00
2611;DHT22;5612;51.134;17.058;2023-09-12T11:46:08;49.00;1.00
2611;DHT22;5612;51.134;17.058;2023-09-12T11:48:37;49.20;1.00
2611;DHT22;5612;51.134;17.058;2023-09-12T11:51:08;50.10;1.00
2611;DHT22;5612;51.134;17.058;2023-09-12T11:53:40;50.50;1.00
2611;DHT22;5612;51.134;17.058;2023-09-12T11:56:10;50.80;1.00
2611;DHT22;5612;51.134;17.058;2023-09-12T11:58:40;51.80;1.00
2611;DHT22;5612;51.134;17.058;2023-09-12T12:01:12;51.20;1.00
2611;DHT22;5612;51.134;17.058;2023-09-12T12:03:41;50.80;1.00
2611;DHT22;5612;51.134;17.058;2023-09-12T12:06:11;50.90;1.00
2611;DHT22;5612;51.134;17.058;2023-09-12T12:08:40;50.80;1.00
2611;DHT22;5612;51.134;17.058;2023-09-12T12:11:11;51.00;1.00
2611;DHT22;5612;51.134;17.058;2023-09-12T12:13:42;51.20;1.00
2611;DHT22;5612;51.134;17.058;2023-09-12T12:16:15;52.00;1.00
2611;DHT22;5612;51.134;17.058;2023-09-12T12:18:45;52.60;1.00
2611;DHT22;5612;51.134;17.058;2023-09-12T12:21:14;52.10;1.00
2611;DHT22;5612;51.134;17.058;2023-09-12T12:23:44;51.70;1.00
2611;DHT22;5612;51.134;17.058;2023-09-12T12:26:13;50.90;1.00
2611;DHT22;5612;51.134;17.058;2023-09-12T12:28:43;50.20;1.00
2611;DHT22;5612;51.134;17.058;2023-09-12T12:31:12;50.20;1.00
2611;DHT22;5612;51.134;17.058;2023-09-12T12:33:48;50.40;1.00
2611;DHT22;5612;51.134;17.058;2023-09-12T12:36:42;50.00;1.00
2611;DHT22;5612;51.134;17.058;2023-09-12T12:39:24;49.50;1.00
2611;DHT22;5612;51.134;17.058;2023-09-12T12:41:53;49.40;1.00
2611;DHT22;5612;51.134;17.058;2023-09-12T12:44:32;49.60;1.00
2611;DHT22;5612;51.134;17.058;2023-09-12T12:47:04;49.70;1.00
2611;DHT22;5612;51.134;17.058;2023-09-12T12:49:36;49.90;1.00
2611;DHT22;5612;51.134;17.058;2023-09-12T12:52:09;50.10;1.00
2611;DHT22;5612;51.134;17.058;2023-09-12T12:54:42;49.50;1.00
2611;DHT22;5612;51.134;17.058;2023-09-12T12:57:12;49.50;1.00
2611;DHT22;5612;51.134;17.058;2023-09-12T12:59:46;49.00;1.00
2611;DHT22;5612;51.134;17.058;2023-09-12T13:02:16;48.10;1.00
2611;DHT22;5612;51.134;17.058;2023-09-12T13:04:47;48.30;1.00
2611;DHT22;5612;51.134;17.058;2023-09-12T13:07:17;48.50;1.00
2611;DHT22;5612;51.134;17.058;2023-09-12T13:09:45;48.90;1.00
2611;DHT22;5612;51.134;17.058;2023-09-12T13:12:15;48.30;1.00
2611;DHT22;5612;51.134;17.058;2023-09-12T13:14:46;47.70;1.00
2611;DHT22;5612;51.134;17.058;2023-09-12T13:17:15;47.70;1.00
2611;DHT22;5612;51.134;17.058;2023-09-12T13:19:44;48.00;1.00
2611;DHT22;5612;51.134;17.058;2023-09-12T13:22:12;48.30;1.00
2611;DHT22;5612;51.134;17.058;2023-09-12T13:24:41;47.60;1.00
2611;DHT22;5612;51.134;17.058;2023-09-12T13:27:10;47.30;1.00
2611;DHT22;5612;51.134;17.058;2023-09-12T13:29:39;47.10;1.00
2611;DHT22;5612;51.134;17.058;2023-09-12T13:32:10;46.90;1.00
2611;DHT22;5612;51.134;17.058;2023-09-12T13:34:40;46.20;1.00
2611;DHT22;5612;51.134;17.058;2023-09-12T13:37:08;46.70;1.00
2611;DHT22;5612;51.134;17.058;2023-09-12T13:39:39;46.00;1.00
2611;DHT22;5612;51.134;17.058;2023-09-12T13:42:08;46.20;1.00
2611;DHT22;5612;51.134;17.058;2023-09-12T13:44:37;47.10;1.00
2611;DHT22;5612;51.134;17.058;2023-09-12T13:47:06;47.80;1.00
2611;DHT22;5612;51.134;17.058;2023-09-12T13:49:37;47.70;1.00
2611;DHT22;5612;51.134;17.058;2023-09-12T13:52:06;48.20;1.00
2611;DHT22;5612;51.134;17.058;2023-09-12T13:54:34;48.10;1.00
2611;DHT22;5612;51.134;17.058;2023-09-12T13:57:04;47.80;1.00
2611;DHT22;5612;51.134;17.058;2023-09-12T13:59:34;48.20;1.00
2611;DHT22;5612;51.134;17.058;2023-09-12T14:02:12;48.60;1.00
2611;DHT22;5612;51.134;17.058;2023-09-12T14:04:44;48.40;1.00
2611;DHT22;5612;51.134;17.058;2023-09-12T14:07:17;48.50;1.00
2611;DHT22;5612;51.134;17.058;2023-09-12T14:09:47;48.60;1.00
2611;DHT22;5612;51.134;17.058;2023-09-12T14:12:17;48.50;1.00
2611;DHT22;5612;51.134;17.058;2023-09-12T14:14:54;48.20;1.00
2611;DHT22;5612;51.134;17.058;2023-09-12T14:17:35;48.30;1.00
2611;DHT22;5612;51.134;17.058;2023-09-12T14:20:14;48.30;1.00
2611;DHT22;5612;51.134;17.058;2023-09-12T14:22:45;48.60;1.00
2611;DHT22;5612;51.134;17.058;2023-09-12T14:25:14;48.70;1.00
2611;DHT22;5612;51.134;17.058;2023-09-12T14:27:45;48.40;1.00
2611;DHT22;5612;51.134;17.058;2023-09-12T14:30:16;48.40;1.00
2611;DHT22;5612;51.134;17.058;2023-09-12T14:32:48;48.20;1.00
2611;DHT22;5612;51.134;17.058;2023-09-12T14:35:20;47.60;1.00
2611;DHT22;5612;51.134;17.058;2023-09-12T14:37:50;47.40;1.00
2611;DHT22;5612;51.134;17.058;2023-09-12T14:40:20;47.30;1.00
2611;DHT22;5612;51.134;17.058;2023-09-12T14:42:50;47.10;1.00
2611;DHT22;5612;51.134;17.058;2023-09-12T14:45:21;46.80;1.00
2611;DHT22;5612;51.134;17.058;2023-09-12T14:47:54;46.80;1.00
2611;DHT22;5612;51.134;17.058;2023-09-12T14:50:25;47.00;1.00
2611;DHT22;5612;51.134;17.058;2023-09-12T14:53:09;46.80;1.00
2611;DHT22;5612;51.134;17.058;2023-09-12T14:55:39;46.50;1.00
2611;DHT22;5612;51.134;17.058;2023-09-12T14:58:09;46.40;1.00
2611;DHT22;5612;51.134;17.058;2023-09-12T15:00:42;46.10;1.00
2611;DHT22;5612;51.134;17.058;2023-09-12T15:03:12;45.90;1.00
2611;DHT22;5612;51.134;17.058;2023-09-12T15:05:43;45.70;1.00
2611;DHT22;5612;51.134;17.058;2023-09-12T15:08:13;45.30;1.00
2611;DHT22;5612;51.134;17.058;2023-09-12T15:10:44;45.30;1.00
2611;DHT22;5612;51.134;17.058;2023-09-12T15:13:13;45.20;1.00
2611;DHT22;5612;51.134;17.058;2023-09-12T15:15:43;44.70;1.00
2611;DHT22;5612;51.134;17.058;2023-09-12T15:18:14;44.50;1.00
2611;DHT22;5612;51.134;17.058;2023-09-12T15:20:45;44.30;1.00
2611;DHT22;5612;51.134;17.058;2023-09-12T15:23:16;44.00;1.00
2611;DHT22;5612;51.134;17.058;2023-09-12T15:25:45;43.80;1.00
2611;DHT22;5612;51.134;17.058;2023-09-12T15:28:15;43.50;1.00
2611;DHT22;5612;51.134;17.058;2023-09-12T15:30:44;43.10;1.00
2611;DHT22;5612;51.134;17.058;2023-09-12T15:33:13;42.90;1.00
2611;DHT22;5612;51.134;17.058;2023-09-12T15:35:45;42.60;1.00
2611;DHT22;5612;51.134;17.058;2023-09-12T15:38:14;42.40;1.00
2611;DHT22;5612;51.134;17.058;2023-09-12T15:40:43;42.10;1.00
2611;DHT22;5612;51.134;17.058;2023-09-12T15:43:13;41.80;1.00
2611;DHT22;5612;51.134;17.058;2023-09-12T15:45:52;41.60;1.00
2611;DHT22;5612;51.134;17.058;2023-09-12T15:48:22;41.40;1.00
2611;DHT22;5612;51.134;17.058;2023-09-12T15:50:54;40.90;1.00
2611;DHT22;5612;51.134;17.058;2023-09-12T15:53:24;40.60;1.00
2611;DHT22;5612;51.134;17.058;2023-09-12T15:55:54;40.30;1.00
2611;DHT22;5612;51.134;17.058;2023-09-12T15:58:23;40.20;1.00
2611;DHT22;5612;51.134;17.058;2023-09-12T16:00:54;39.80;1.00
2611;DHT22;5612;51.134;17.058;2023-09-12T16:03:26;39.50;1.00
2611;DHT22;5612;51.134;17.058;2023-09-12T16:05:57;39.30;1.00
2611;DHT22;5612;51.134;17.058;2023-09-12T16:08:26;39.00;1.00
2611;DHT22;5612;51.134;17.058;2023-09-12T16:10:57;38.70;1.00
2611;DHT22;5612;51.134;17.058;2023-09-12T16:13:26;38.20;1.00
2611;DHT22;5612;51.134;17.058;2023-09-12T16:15:56;37.70;1.00
2611;DHT22;5612;51.134;17.058;2023-09-12T16:18:26;37.30;1.00
2611;DHT22;5612;51.134;17.058;2023-09-12T16:20:58;36.80;1.00